GLD1219 SBBR-SBPJ
Flight info
| Callsign | GLD1219 |
|---|---|
| Flight time | 0h 56m |
| Altitude | 34000 |
| Route | UTGO1B ILKUS UZ26 LIBEC DCT |
| Aircraft | A320/M-SDFGIRY/S |
Departure
| Time | 2026-05-08 22:58 |
|---|---|
| Airport | Presidente Juscelino Kubitschek International Airport (SBBR) |
Arrival
| Time | 2026-05-08 23:55 |
|---|---|
| Airport | Brigadeiro Lysias Rodrigues Airport (SBPJ) |
| Time | Latitude | Longitude | Altitude | Speed | Heading |
|---|---|---|---|---|---|
| 2026-05-08 22:44 | -15.86672 | -47.92348 | 3469 ft | 0 kts | 206° |
| 2026-05-08 22:53 | -15.86662 | -47.92343 | 3470 ft | 2 kts | 204° |
| 2026-05-08 22:53 | -15.86647 | -47.92336 | 3470 ft | 2 kts | 208° |
| 2026-05-08 22:53 | -15.86633 | -47.92328 | 3469 ft | 2 kts | 210° |
| 2026-05-08 22:53 | -15.86619 | -47.92320 | 3468 ft | 2 kts | 212° |
| 2026-05-08 22:54 | -15.86605 | -47.92310 | 3469 ft | 2 kts | 217° |
| 2026-05-08 22:54 | -15.86592 | -47.92300 | 3467 ft | 2 kts | 229° |
| 2026-05-08 22:54 | -15.86583 | -47.92286 | 3468 ft | 2 kts | 272° |
| 2026-05-08 22:54 | -15.86585 | -47.92274 | 3470 ft | 1 kts | 295° |
| 2026-05-08 22:55 | -15.86586 | -47.92272 | 3470 ft | 0 kts | 295° |
| 2026-05-08 22:55 | -15.86579 | -47.92287 | 3469 ft | 11 kts | 298° |
| 2026-05-08 22:55 | -15.86544 | -47.92414 | 3470 ft | 21 kts | 286° |
| 2026-05-08 22:56 | -15.86545 | -47.92613 | 3470 ft | 30 kts | 265° |
| 2026-05-08 22:56 | -15.86497 | -47.92769 | 3469 ft | 18 kts | 348° |
| 2026-05-08 22:56 | -15.86486 | -47.92769 | 3469 ft | 0 kts | 5° |
| 2026-05-08 22:57 | -15.86483 | -47.92769 | 3469 ft | 4 kts | 358° |
| 2026-05-08 22:57 | -15.86413 | -47.92757 | 3467 ft | 18 kts | 12° |
| 2026-05-08 22:57 | -15.86347 | -47.92614 | 3468 ft | 36 kts | 88° |
| 2026-05-08 22:57 | -15.86312 | -47.92033 | 3473 ft | 120 kts | 86° |
| 2026-05-08 22:58 | -15.86233 | -47.90910 | 3579 ft | 178 kts | 85° |
| 2026-05-08 22:58 | -15.86158 | -47.89616 | 4101 ft | 186 kts | 84° |
| 2026-05-08 22:58 | -15.86073 | -47.88206 | 4759 ft | 185 kts | 85° |
| 2026-05-08 22:58 | -15.85984 | -47.86859 | 5323 ft | 189 kts | 85° |
| 2026-05-08 22:59 | -15.85885 | -47.85431 | 5550 ft | 211 kts | 85° |
| 2026-05-08 22:59 | -15.85775 | -47.83820 | 5805 ft | 229 kts | 85° |
| 2026-05-08 22:59 | -15.85662 | -47.82118 | 6194 ft | 247 kts | 85° |
| 2026-05-08 22:59 | -15.85533 | -47.80141 | 6612 ft | 267 kts | 84° |
| 2026-05-08 23:00 | -15.85076 | -47.78217 | 7254 ft | 276 kts | 63° |
| 2026-05-08 23:00 | -15.83949 | -47.76605 | 8028 ft | 280 kts | 41° |
| 2026-05-08 23:00 | -15.82317 | -47.75553 | 8818 ft | 284 kts | 19° |
| 2026-05-08 23:00 | -15.80338 | -47.75222 | 9624 ft | 288 kts | 357° |
| 2026-05-08 23:01 | -15.78408 | -47.75686 | 9953 ft | 290 kts | 336° |
| 2026-05-08 23:01 | -15.76506 | -47.76621 | 10035 ft | 307 kts | 334° |
| 2026-05-08 23:01 | -15.74508 | -47.77615 | 10051 ft | 324 kts | 335° |
| 2026-05-08 23:01 | -15.72480 | -47.78621 | 10047 ft | 324 kts | 335° |
| 2026-05-08 23:02 | -15.70443 | -47.79623 | 10044 ft | 324 kts | 335° |
| 2026-05-08 23:02 | -15.68392 | -47.80623 | 10042 ft | 325 kts | 335° |
| 2026-05-08 23:02 | -15.66329 | -47.81637 | 10313 ft | 334 kts | 334° |
| 2026-05-08 23:02 | -15.64230 | -47.82710 | 11033 ft | 338 kts | 334° |
| 2026-05-08 23:03 | -15.62119 | -47.83812 | 11767 ft | 341 kts | 334° |
| 2026-05-08 23:03 | -15.59986 | -47.84934 | 12483 ft | 345 kts | 334° |
| 2026-05-08 23:03 | -15.57836 | -47.86060 | 13174 ft | 349 kts | 335° |
| 2026-05-08 23:03 | -15.55658 | -47.87195 | 13845 ft | 352 kts | 335° |
| 2026-05-08 23:04 | -15.53451 | -47.88341 | 14416 ft | 356 kts | 335° |
| 2026-05-08 23:04 | -15.51224 | -47.89495 | 14987 ft | 360 kts | 335° |
| 2026-05-08 23:04 | -15.48976 | -47.90657 | 15553 ft | 363 kts | 335° |
| 2026-05-08 23:04 | -15.46697 | -47.91834 | 16102 ft | 367 kts | 335° |
| 2026-05-08 23:05 | -15.44397 | -47.93022 | 16642 ft | 371 kts | 335° |
| 2026-05-08 23:05 | -15.42078 | -47.94219 | 17209 ft | 375 kts | 335° |
| 2026-05-08 23:05 | -15.39699 | -47.95448 | 17739 ft | 379 kts | 335° |
| 2026-05-08 23:05 | -15.37345 | -47.96664 | 18248 ft | 383 kts | 335° |
| 2026-05-08 23:06 | -15.35712 | -47.97509 | 18554 ft | 385 kts | 335° |
| 2026-05-08 23:06 | -15.33306 | -47.98753 | 19009 ft | 388 kts | 335° |
| 2026-05-08 23:06 | -15.30876 | -48.00007 | 19469 ft | 391 kts | 334° |
| 2026-05-08 23:06 | -15.28427 | -48.01271 | 19923 ft | 394 kts | 334° |
| 2026-05-08 23:07 | -15.25967 | -48.02541 | 20372 ft | 397 kts | 334° |
| 2026-05-08 23:07 | -15.23487 | -48.03823 | 20813 ft | 400 kts | 334° |
| 2026-05-08 23:07 | -15.20958 | -48.05131 | 21238 ft | 403 kts | 334° |
| 2026-05-08 23:07 | -15.18439 | -48.06433 | 21655 ft | 406 kts | 334° |
| 2026-05-08 23:08 | -15.15900 | -48.07739 | 22077 ft | 409 kts | 334° |
| 2026-05-08 23:08 | -15.13350 | -48.09049 | 22491 ft | 412 kts | 334° |
| 2026-05-08 23:08 | -15.10772 | -48.10376 | 22887 ft | 415 kts | 333° |
| 2026-05-08 23:08 | -15.08179 | -48.11714 | 23287 ft | 418 kts | 333° |
| 2026-05-08 23:09 | -15.05570 | -48.13060 | 23666 ft | 421 kts | 333° |
| 2026-05-08 23:09 | -15.02938 | -48.14417 | 24000 ft | 423 kts | 333° |
| 2026-05-08 23:09 | -15.00263 | -48.15791 | 24363 ft | 425 kts | 333° |
| 2026-05-08 23:09 | -14.97644 | -48.17134 | 24722 ft | 426 kts | 333° |
| 2026-05-08 23:10 | -14.94942 | -48.18498 | 25079 ft | 428 kts | 336° |
| 2026-05-08 23:10 | -14.92117 | -48.19496 | 25424 ft | 431 kts | 346° |
| 2026-05-08 23:10 | -14.89151 | -48.19968 | 25778 ft | 434 kts | 355° |
| 2026-05-08 23:10 | -14.86128 | -48.20058 | 26121 ft | 435 kts | 358° |
| 2026-05-08 23:11 | -14.83100 | -48.20135 | 26466 ft | 437 kts | 357° |
| 2026-05-08 23:11 | -14.80053 | -48.20217 | 26803 ft | 439 kts | 357° |
| 2026-05-08 23:11 | -14.76998 | -48.20303 | 27141 ft | 440 kts | 357° |
| 2026-05-08 23:11 | -14.73942 | -48.20392 | 27469 ft | 442 kts | 357° |
| 2026-05-08 23:12 | -14.70847 | -48.20483 | 27790 ft | 444 kts | 357° |
| 2026-05-08 23:12 | -14.67744 | -48.20572 | 28107 ft | 446 kts | 357° |
| 2026-05-08 23:12 | -14.64594 | -48.20663 | 28432 ft | 448 kts | 357° |
| 2026-05-08 23:12 | -14.61480 | -48.20753 | 28747 ft | 450 kts | 357° |
| 2026-05-08 23:13 | -14.58329 | -48.20845 | 29055 ft | 452 kts | 357° |
| 2026-05-08 23:13 | -14.55185 | -48.20934 | 29376 ft | 454 kts | 357° |
| 2026-05-08 23:13 | -14.52012 | -48.21022 | 29684 ft | 456 kts | 357° |
| 2026-05-08 23:13 | -14.48841 | -48.21107 | 29963 ft | 458 kts | 357° |
| 2026-05-08 23:14 | -14.45650 | -48.21193 | 30223 ft | 459 kts | 357° |
| 2026-05-08 23:14 | -14.42438 | -48.21283 | 30462 ft | 461 kts | 357° |
| 2026-05-08 23:14 | -14.39230 | -48.21376 | 30707 ft | 463 kts | 356° |
| 2026-05-08 23:14 | -14.35997 | -48.21466 | 30935 ft | 465 kts | 356° |
| 2026-05-08 23:15 | -14.32765 | -48.21554 | 31175 ft | 466 kts | 356° |
| 2026-05-08 23:15 | -14.29514 | -48.21644 | 31436 ft | 467 kts | 356° |
| 2026-05-08 23:15 | -14.26267 | -48.21733 | 31775 ft | 466 kts | 356° |
| 2026-05-08 23:15 | -14.23033 | -48.21821 | 32120 ft | 465 kts | 356° |
| 2026-05-08 23:16 | -14.19794 | -48.21908 | 32455 ft | 464 kts | 356° |
| 2026-05-08 23:16 | -14.16558 | -48.21996 | 32797 ft | 464 kts | 355° |
| 2026-05-08 23:16 | -14.13330 | -48.22088 | 33135 ft | 463 kts | 355° |
| 2026-05-08 23:16 | -14.10112 | -48.22178 | 33477 ft | 462 kts | 355° |
| 2026-05-08 23:17 | -14.06893 | -48.22268 | 33822 ft | 462 kts | 355° |
| 2026-05-08 23:17 | -14.03677 | -48.22355 | 33950 ft | 460 kts | 355° |
| 2026-05-08 23:17 | -13.97360 | -48.22524 | 33964 ft | 451 kts | 355° |
| 2026-05-08 23:18 | -13.91108 | -48.22696 | 33958 ft | 449 kts | 355° |
| 2026-05-08 23:18 | -13.84866 | -48.22874 | 33964 ft | 448 kts | 355° |
| 2026-05-08 23:19 | -13.78629 | -48.23053 | 33967 ft | 448 kts | 355° |
| 2026-05-08 23:19 | -13.72397 | -48.23226 | 33965 ft | 448 kts | 355° |
| 2026-05-08 23:20 | -13.66125 | -48.23398 | 33947 ft | 448 kts | 356° |
| 2026-05-08 23:20 | -13.59900 | -48.23570 | 33950 ft | 448 kts | 355° |
| 2026-05-08 23:21 | -13.53674 | -48.23743 | 33965 ft | 447 kts | 356° |
| 2026-05-08 23:21 | -13.47455 | -48.23909 | 33941 ft | 447 kts | 355° |
| 2026-05-08 23:22 | -13.41223 | -48.24081 | 33951 ft | 447 kts | 356° |
| 2026-05-08 23:22 | -13.35006 | -48.24257 | 33953 ft | 447 kts | 356° |
| 2026-05-08 23:23 | -13.28783 | -48.24433 | 33948 ft | 447 kts | 356° |
| 2026-05-08 23:23 | -13.22549 | -48.24602 | 33947 ft | 447 kts | 356° |
| 2026-05-08 23:24 | -13.16283 | -48.24771 | 33948 ft | 447 kts | 356° |
| 2026-05-08 23:24 | -13.10049 | -48.24948 | 33951 ft | 447 kts | 356° |
| 2026-05-08 23:25 | -13.03829 | -48.25126 | 33957 ft | 447 kts | 356° |
| 2026-05-08 23:25 | -12.97617 | -48.25293 | 33952 ft | 446 kts | 356° |
| 2026-05-08 23:26 | -12.91416 | -48.25467 | 33950 ft | 446 kts | 356° |
| 2026-05-08 23:26 | -12.85133 | -48.25632 | 33940 ft | 445 kts | 356° |
| 2026-05-08 23:27 | -12.78953 | -48.25801 | 33941 ft | 445 kts | 356° |
| 2026-05-08 23:27 | -12.72744 | -48.25976 | 33937 ft | 445 kts | 356° |
| 2026-05-08 23:28 | -12.66549 | -48.26147 | 33938 ft | 445 kts | 356° |
| 2026-05-08 23:28 | -12.60353 | -48.26318 | 33931 ft | 445 kts | 356° |
| 2026-05-08 23:29 | -12.55164 | -48.26458 | 33928 ft | 445 kts | 356° |
| 2026-05-08 23:29 | -12.47929 | -48.26650 | 33930 ft | 445 kts | 356° |
| 2026-05-08 23:30 | -12.41763 | -48.26825 | 33927 ft | 445 kts | 356° |
| 2026-05-08 23:30 | -12.35583 | -48.26996 | 33927 ft | 445 kts | 356° |
| 2026-05-08 23:31 | -12.30406 | -48.27133 | 33928 ft | 445 kts | 356° |
| 2026-05-08 23:31 | -12.24166 | -48.27299 | 33929 ft | 445 kts | 356° |
| 2026-05-08 23:32 | -12.17964 | -48.27469 | 33931 ft | 445 kts | 356° |
| 2026-05-08 23:32 | -12.11773 | -48.27645 | 33931 ft | 445 kts | 356° |
| 2026-05-08 23:33 | -12.05578 | -48.27821 | 33926 ft | 446 kts | 356° |
| 2026-05-08 23:33 | -11.99374 | -48.27989 | 33924 ft | 446 kts | 356° |
| 2026-05-08 23:34 | -11.93173 | -48.28143 | 33922 ft | 446 kts | 356° |
| 2026-05-08 23:34 | -11.86932 | -48.28306 | 33921 ft | 446 kts | 356° |
| 2026-05-08 23:35 | -11.80691 | -48.28480 | 33917 ft | 445 kts | 356° |
| 2026-05-08 23:35 | -11.74454 | -48.28650 | 33726 ft | 446 kts | 356° |
| 2026-05-08 23:36 | -11.71400 | -48.28732 | 33235 ft | 443 kts | 356° |
| 2026-05-08 23:36 | -11.68290 | -48.28814 | 32646 ft | 440 kts | 356° |
| 2026-05-08 23:36 | -11.65203 | -48.28898 | 32069 ft | 437 kts | 356° |
| 2026-05-08 23:36 | -11.62166 | -48.28982 | 31506 ft | 435 kts | 357° |
| 2026-05-08 23:37 | -11.59139 | -48.29068 | 30947 ft | 433 kts | 357° |
| 2026-05-08 23:37 | -11.56136 | -48.29152 | 30390 ft | 431 kts | 357° |
| 2026-05-08 23:37 | -11.53143 | -48.29236 | 29816 ft | 429 kts | 358° |
| 2026-05-08 23:37 | -11.50171 | -48.29319 | 29249 ft | 426 kts | 358° |
| 2026-05-08 23:38 | -11.47240 | -48.29402 | 28724 ft | 421 kts | 358° |
| 2026-05-08 23:38 | -11.44325 | -48.29482 | 28199 ft | 417 kts | 358° |
| 2026-05-08 23:38 | -11.41432 | -48.29561 | 27695 ft | 413 kts | 358° |
| 2026-05-08 23:38 | -11.38527 | -48.29641 | 27188 ft | 410 kts | 358° |
| 2026-05-08 23:39 | -11.35691 | -48.29719 | 26700 ft | 406 kts | 359° |
| 2026-05-08 23:39 | -11.32885 | -48.29796 | 26236 ft | 402 kts | 359° |
| 2026-05-08 23:39 | -11.30057 | -48.29894 | 25756 ft | 399 kts | 355° |
| 2026-05-08 23:39 | -11.27333 | -48.30378 | 25291 ft | 397 kts | 345° |
| 2026-05-08 23:40 | -11.24677 | -48.31127 | 24807 ft | 395 kts | 345° |
| 2026-05-08 23:40 | -11.22032 | -48.31876 | 24327 ft | 394 kts | 346° |
| 2026-05-08 23:40 | -11.19349 | -48.32631 | 23826 ft | 393 kts | 346° |
| 2026-05-08 23:40 | -11.16709 | -48.33369 | 23298 ft | 393 kts | 346° |
| 2026-05-08 23:41 | -11.14072 | -48.34106 | 22767 ft | 392 kts | 346° |
| 2026-05-08 23:41 | -11.11455 | -48.34839 | 22261 ft | 390 kts | 346° |
| 2026-05-08 23:41 | -11.08844 | -48.35569 | 21762 ft | 388 kts | 346° |
| 2026-05-08 23:41 | -11.06244 | -48.36295 | 21257 ft | 386 kts | 346° |
| 2026-05-08 23:42 | -11.03660 | -48.37014 | 20773 ft | 385 kts | 346° |
| 2026-05-08 23:42 | -11.01075 | -48.37734 | 20272 ft | 384 kts | 346° |
| 2026-05-08 23:42 | -10.98498 | -48.38453 | 19772 ft | 383 kts | 346° |
| 2026-05-08 23:42 | -10.95929 | -48.39172 | 19278 ft | 382 kts | 346° |
| 2026-05-08 23:43 | -10.93369 | -48.39890 | 18800 ft | 381 kts | 346° |
| 2026-05-08 23:43 | -10.90819 | -48.40605 | 18344 ft | 379 kts | 346° |
| 2026-05-08 23:43 | -10.88251 | -48.41326 | 17827 ft | 377 kts | 346° |
| 2026-05-08 23:43 | -10.85741 | -48.42029 | 17402 ft | 373 kts | 346° |
| 2026-05-08 23:44 | -10.83246 | -48.42725 | 16951 ft | 370 kts | 346° |
| 2026-05-08 23:44 | -10.80764 | -48.43419 | 16463 ft | 369 kts | 346° |
| 2026-05-08 23:44 | -10.78295 | -48.44108 | 15962 ft | 368 kts | 346° |
| 2026-05-08 23:44 | -10.75850 | -48.44790 | 15646 ft | 362 kts | 346° |
| 2026-05-08 23:45 | -10.73427 | -48.45466 | 15166 ft | 360 kts | 346° |
| 2026-05-08 23:45 | -10.71012 | -48.46139 | 14734 ft | 359 kts | 346° |
| 2026-05-08 23:45 | -10.68606 | -48.46809 | 14293 ft | 357 kts | 346° |
| 2026-05-08 23:45 | -10.66219 | -48.47476 | 13881 ft | 355 kts | 346° |
| 2026-05-08 23:46 | -10.63847 | -48.48140 | 13447 ft | 353 kts | 346° |
| 2026-05-08 23:46 | -10.61493 | -48.48800 | 12983 ft | 350 kts | 346° |
| 2026-05-08 23:46 | -10.59146 | -48.49456 | 12522 ft | 348 kts | 346° |
| 2026-05-08 23:46 | -10.56817 | -48.50103 | 12080 ft | 345 kts | 346° |
| 2026-05-08 23:47 | -10.54510 | -48.50744 | 11631 ft | 343 kts | 346° |
| 2026-05-08 23:47 | -10.52218 | -48.51380 | 11190 ft | 341 kts | 346° |
| 2026-05-08 23:47 | -10.49939 | -48.52014 | 10756 ft | 338 kts | 346° |
| 2026-05-08 23:47 | -10.47677 | -48.52644 | 10386 ft | 334 kts | 346° |
| 2026-05-08 23:48 | -10.45446 | -48.53267 | 10253 ft | 322 kts | 346° |
| 2026-05-08 23:48 | -10.43327 | -48.53862 | 10145 ft | 311 kts | 346° |
| 2026-05-08 23:48 | -10.41267 | -48.54438 | 9923 ft | 303 kts | 346° |
| 2026-05-08 23:48 | -10.39243 | -48.55001 | 9603 ft | 301 kts | 347° |
| 2026-05-08 23:49 | -10.37231 | -48.55561 | 9231 ft | 299 kts | 346° |
| 2026-05-08 23:49 | -10.35227 | -48.56120 | 8850 ft | 297 kts | 347° |
| 2026-05-08 23:49 | -10.33201 | -48.56681 | 8101 ft | 308 kts | 347° |
| 2026-05-08 23:49 | -10.31087 | -48.57261 | 7308 ft | 320 kts | 347° |
| 2026-05-08 23:50 | -10.28912 | -48.57860 | 6654 ft | 326 kts | 346° |
| 2026-05-08 23:50 | -10.26698 | -48.58291 | 6170 ft | 321 kts | 3° |
| 2026-05-08 23:50 | -10.24595 | -48.57728 | 5727 ft | 311 kts | 32° |
| 2026-05-08 23:50 | -10.23014 | -48.56279 | 5290 ft | 304 kts | 51° |
| 2026-05-08 23:51 | -10.22125 | -48.55155 | 5002 ft | 301 kts | 54° |
| 2026-05-08 23:51 | -10.20914 | -48.53434 | 4573 ft | 298 kts | 57° |
| 2026-05-08 23:51 | -10.19885 | -48.51631 | 4128 ft | 293 kts | 73° |
| 2026-05-08 23:51 | -10.19794 | -48.49605 | 3738 ft | 287 kts | 103° |
| 2026-05-08 23:52 | -10.20561 | -48.47772 | 3382 ft | 283 kts | 120° |
| 2026-05-08 23:52 | -10.21668 | -48.46138 | 2989 ft | 279 kts | 126° |
| 2026-05-08 23:52 | -10.22830 | -48.44644 | 2841 ft | 257 kts | 127° |
| 2026-05-08 23:52 | -10.23888 | -48.43291 | 2578 ft | 234 kts | 127° |
| 2026-05-08 23:53 | -10.24873 | -48.42028 | 1831 ft | 223 kts | 128° |
| 2026-05-08 23:53 | -10.25795 | -48.40825 | 1412 ft | 202 kts | 128° |
| 2026-05-08 23:53 | -10.26589 | -48.39772 | 1375 ft | 176 kts | 126° |
| 2026-05-08 23:53 | -10.27237 | -48.38792 | 1238 ft | 160 kts | 121° |
| 2026-05-08 23:54 | -10.27779 | -48.37867 | 1050 ft | 150 kts | 120° |
| 2026-05-08 23:54 | -10.28292 | -48.36986 | 880 ft | 142 kts | 122° |
| 2026-05-08 23:54 | -10.28823 | -48.36179 | 749 ft | 128 kts | 124° |
| 2026-05-08 23:55 | -10.29294 | -48.35528 | 759 ft | 20 kts | 169° |
| 2026-05-08 23:55 | -10.29403 | -48.35586 | 756 ft | 0 kts | 212° |
| 2026-05-08 23:55 | -10.29406 | -48.35588 | 760 ft | 5 kts | 212° |
| 2026-05-08 23:56 | -10.29471 | -48.35659 | 755 ft | 20 kts | 269° |
| 2026-05-08 23:56 | -10.29492 | -48.35725 | 759 ft | 0 kts | 208° |